找回密码
 注册
6月份EDA365直播计划

推荐主题

本版置顶 隐藏置顶帖 [仿真讨论] SI仿真工具闲聊 76人参与 attach_img  ...2345 yawyw 2016-4-9 07:33 74 9994 布衣 2020-5-20 16:11
本版置顶 隐藏置顶帖 那些年,风靡全球的SI,PI,EMC BOOKS(2009--2015)外文版 135人参与 attach_img  ...23456..9 樱桃海弥 2016-2-2 17:33 134 12968 lele123456$ 2020-5-6 17:40
      
[Ansys仿真] ansys吃.mcm和.sip New schsf 2020-6-4 22:17 0 4 schsf 2020-6-4 22:17
[仿真讨论] 怎么理解反射信号淹没在入射波的上升沿中 2人参与 New embnn 2020-6-4 13:52 2 39 wewwqq 2020-6-4 16:04
[仿真讨论] 高速PCB设计时所面临的信号完整性问题解决方法 2人参与 New ytm 2020-6-4 11:10 2 56 heronsbill 2020-6-4 14:23
[ADS仿真] 求一份指导教程 2人参与 New 小白求教 2020-6-3 17:40 2 69 dzkcool 2020-6-4 09:44
[仿真讨论] Sigrity2019手动设置VRM 2人参与 新人帖 New Yangchen521 2020-6-3 16:44 3 78 Yangchen521 2020-6-4 11:24
[Cadence Sigrity] 怎样设置阻容模型 1人参与 attach_img New cc11058 2020-6-3 15:30 1 18 Getaway 2020-6-4 16:03
[仿真讨论] PCB设计过程中的仿真模型EMC/EMI问题分析 3人参与 attach_img New STM 2020-6-3 14:50 3 118 nwq196328 2020-6-4 09:01
[Cadence Sigrity] AD怎么输出netlist.txt power tree用 3人参与 新人帖 New 莫克 2020-6-2 20:00 4 73 莫克 2020-6-4 09:57
[Ansys仿真] Q3D提取封装RLC参数 1人参与 新人帖 New huanghao 2020-6-2 16:48 1 67 ByElmer1 2020-6-2 17:29
[仿真讨论] 信号完整性的测试手段都有哪些? 5人参与 New nolita 2020-6-2 14:48 6 76 小白求教 2020-6-4 20:22
[仿真讨论] 串扰的形成原理 1人参与 attach_img New fawa 2020-6-2 13:45 1 88 NJNU 2020-6-2 14:18
[Cadence Sigrity] DDR仿真第8期从power si提取参数到system si仿真波形差别那么大? 2人参与 attach_img New hyxs714154 2020-6-1 23:35 4 106 hyxs714154 2020-6-2 23:09
[Cadence Sigrity] 08节课SoDimm资料疑问 2人参与 attach_img New zhouwo 2020-6-1 11:03 2 80 dzkcool 2020-6-1 13:45
[仿真讨论] 利用Ansoft DesignerSI工具进行多种信号的完整性分析 1人参与 attach_img New ytm 2020-6-1 10:49 1 58 SSWASD 2020-6-1 11:34
[Cadence Sigrity] 回流地过孔 3人参与 New Keio 2020-5-31 22:47 3 100 fereway 2020-6-1 10:39
[Cadence Sigrity] 请教:如何对背板进行多板联合仿真? 1人参与 新人帖 attach_img New 一世虚忘 2020-5-31 21:18 3 83 一世虚忘 2020-6-1 19:56
[仿真讨论] 做好信号完整性分析设计需要掌握哪些必备技能? 4人参与 New wisuhuu 2020-5-29 14:42 4 137 lbl林宝乐 2020-6-3 18:04
[仿真讨论] pcb layout中信号完整性的信号延迟分析 3人参与 New zjsxuw 2020-5-29 13:46 3 110 starzhan 2020-6-3 16:15
[ADS仿真] Allegro导入ADS仿真问题 3人参与 attach_img New ZMOS 2020-5-28 23:38 7 98 ZMOS 2020-5-30 16:14
[Cadence Sigrity] 分享镁光LPDDR3 的Die 资料以及IBIS模型 2人参与 attach_img xiáò虫 2020-5-28 17:58 1 97 Heaven_1 2020-5-28 19:23
POWER SI 提取走线寄生LC 3人参与 weijianbin1234 2020-5-28 13:33 3 78 spices 2020-5-31 00:20
[仿真讨论] 高速仿真提高信号质量的注意点 9人参与 attachment poseidon 2020-5-28 11:02 9 70 宿沙 2020-6-3 16:12
[Cadence Sigrity] SystemSI中DDR4地址信号搭建S参数,CLK信号Term如何与PCB S参数互连? 5人参与 attachment JLP7878 2020-5-28 10:28 6 96 shellfire 2020-5-28 14:51
下一页 »
还可输入 80 个字符
您需要登录后才可以发帖 登录 | 注册

本版积分规则

关闭

推荐内容上一条 /1 下一条

EDA365公众号

关于我们|手机版|EDA365电子论坛网 ( 粤ICP备18020198号 )

GMT+8, 2020-6-4 22:35 , Processed in 0.156250 second(s), 57 queries , Gzip On.

深圳市墨知创新科技有限公司

地址:深圳市南山区科技生态园2栋A座805 电话:19925233282

返回顶部 返回版块